Chie Maru No.10 — JD2376 — position and weather

sailwx.info

Track history (hours):
 
Tides and Currents Weather Stations Pressure Air Temp Water Temp Dewpoint Dewpoint Depression Visibility Wind Speed Wind Dir Waves Ship Positions

Chie Maru No.10

Last reported at 2015-Aug-20 05:10 UTC. Time now 2015-Sep-01 18:10 UTC.
Position N 36°01' E 140°44'.
Warning: this ship's position is 12 days out of date.

Length 72 m; draft 4 m.

Type: Ship. MMSI: 431000147.

Date/timePositionNaut miles runAvg speedWind from/ knotsBaromVisibWave heightAir tempDewpointWater temp
2015-Aug-20 05:10N 36°01' E 140°44'7 9.9
2015-Aug-20 04:30N 35°55' E 140°41'0 0.0
2015-Aug-20 03:30N 35°55' E 140°41'0 0.0
2015-Aug-20 02:30N 35°55' E 140°41'0 0.0
2015-Aug-20 01:33N 35°55' E 140°41'5 2.1
2015-Aug-19 23:14N 35°59' E 140°43'0 0.0
2015-Aug-19 22:29N 35°59' E 140°43'0 0.0
2015-Aug-19 21:23N 35°59' E 140°43'0 0.0
2015-Aug-19 20:32N 35°59' E 140°43'  
2015-Aug-15 06:33N 36°04' E 140°45'10 9.6
2015-Aug-15 05:33N 35°55' E 140°41'0 0.0
2015-Aug-15 04:33N 35°55' E 140°41'0 0.0
2015-Aug-15 03:33N 35°55' E 140°41'0 0.0
2015-Aug-15 02:32N 35°55' E 140°41'0 0.0
2015-Aug-15 01:33N 35°55' E 140°41'0 0.0
2015-Aug-15 00:16N 35°55' E 140°41'0 0.0
2015-Aug-14 23:32N 35°55' E 140°41'5 4.7
2015-Aug-14 22:33N 35°59' E 140°43'0 0.0
2015-Aug-14 21:34N 35°59' E 140°43'0 0.0
2015-Aug-14 20:33N 35°59' E 140°43'0 0.0
2015-Aug-14 19:33N 35°59' E 140°43'0 0.0
2015-Aug-14 18:33N 35°59' E 140°43'0 0.1
2015-Aug-14 17:33N 35°59' E 140°43'  
2015-Aug-10 09:31N 36°23' E 140°50'1511.8
2015-Aug-10 08:16N 36°09' E 140°46'911.8
2015-Aug-10 07:32N 36°00' E 140°43'6 5.0
2015-Aug-10 06:21N 35°55' E 140°41'0 0.0
2015-Aug-10 05:31N 35°55' E 140°41'  
Track history (hours):
 
Tides and Currents Weather Stations Pressure Air Temp Water Temp Dewpoint Dewpoint Depression Visibility Wind Speed Wind Dir Waves Ship Positions

Chie Maru No.10

Last reported at 2015-Aug-20 05:10 UTC. Time now 2015-Sep-01 18:10 UTC.
Position N 36°01' E 140°44'.
Warning: this ship's position is 12 days out of date.

Length 72 m; draft 4 m.

Type: Ship. MMSI: 431000147.

Date/timePositionNaut miles runAvg speedWind from/ knotsBaromVisibWave heightAir tempDewpointWater temp
2015-Aug-20 05:10N 36°01' E 140°44'7 9.9
2015-Aug-20 04:30N 35°55' E 140°41'0 0.0
2015-Aug-20 03:30N 35°55' E 140°41'0 0.0
2015-Aug-20 02:30N 35°55' E 140°41'0 0.0
2015-Aug-20 01:33N 35°55' E 140°41'5 2.1
2015-Aug-19 23:14N 35°59' E 140°43'0 0.0
2015-Aug-19 22:29N 35°59' E 140°43'0 0.0
2015-Aug-19 21:23N 35°59' E 140°43'0 0.0
2015-Aug-19 20:32N 35°59' E 140°43'  
2015-Aug-15 06:33N 36°04' E 140°45'10 9.6
2015-Aug-15 05:33N 35°55' E 140°41'0 0.0
2015-Aug-15 04:33N 35°55' E 140°41'0 0.0
2015-Aug-15 03:33N 35°55' E 140°41'0 0.0
2015-Aug-15 02:32N 35°55' E 140°41'0 0.0
2015-Aug-15 01:33N 35°55' E 140°41'0 0.0
2015-Aug-15 00:16N 35°55' E 140°41'0 0.0
2015-Aug-14 23:32N 35°55' E 140°41'5 4.7
2015-Aug-14 22:33N 35°59' E 140°43'0 0.0
2015-Aug-14 21:34N 35°59' E 140°43'0 0.0
2015-Aug-14 20:33N 35°59' E 140°43'0 0.0
2015-Aug-14 19:33N 35°59' E 140°43'0 0.0
2015-Aug-14 18:33N 35°59' E 140°43'0 0.1
2015-Aug-14 17:33N 35°59' E 140°43'  
2015-Aug-10 09:31N 36°23' E 140°50'1511.8
2015-Aug-10 08:16N 36°09' E 140°46'911.8
2015-Aug-10 07:32N 36°00' E 140°43'6 5.0
2015-Aug-10 06:21N 35°55' E 140°41'0 0.0
2015-Aug-10 05:31N 35°55' E 140°41'  

Dump ship's entire track history